Time;durP1;ratioP1;P1;durP2;ratioP2;P2;SDS_P1;SDS_P2;PMS_P1;PMS_P2;Temp;Humidity;BMP_temperature;BMP_pressure;BME280_temperature;BME280_humidity;BME280_pressure;Samples;Min_cycle;Max_cycle;Signal;HPM_P1;HPM_P2
2022/08/07 00:01:20;;;;;;;2.83;1.33;;;17.30;99.90;;;;;;5033250;28;20227;-80
2022/08/07 00:03:46;;;;;;;1.63;1.33;;;17.30;99.90;;;;;;5033344;28;20172;-81
2022/08/07 00:06:12;;;;;;;2.67;1.30;;;17.30;99.90;;;;;;5034501;28;20175;-81
2022/08/07 00:08:38;;;;;;;5.38;1.42;;;17.30;99.90;;;;;;5034579;28;20617;-81
2022/08/07 00:11:05;;;;;;;2.97;1.40;;;17.30;99.90;;;;;;5034420;28;20219;-80
2022/08/07 00:13:31;;;;;;;1.25;1.15;;;17.20;99.90;;;;;;5034584;28;20171;-79
2022/08/07 00:15:57;;;;;;;6.25;1.20;;;17.30;99.90;;;;;;5034380;28;20172;-80
2022/08/07 00:18:26;;;;;;;6.75;1.20;;;17.40;99.90;;;;;;5034470;28;20164;-80
2022/08/07 00:20:58;;;;;;;3.38;1.50;;;17.30;99.90;;;;;;5049355;28;20215;-80
2022/08/07 00:23:25;;;;;;;2.95;1.75;;;17.10;99.90;;;;;;5034189;28;20711;-81
2022/08/07 00:25:51;;;;;;;5.40;1.55;;;17.30;99.90;;;;;;5033975;28;20203;-81
2022/08/07 00:28:16;;;;;;;1.58;1.48;;;17.40;99.90;;;;;;5034185;28;20203;-80
2022/08/07 00:30:42;;;;;;;2.38;1.30;;;17.50;99.90;;;;;;5033728;28;20192;-80
2022/08/07 00:33:08;;;;;;;5.03;1.23;;;17.40;99.90;;;;;;5032883;28;20174;-79
2022/08/07 00:35:34;;;;;;;1.50;1.40;;;17.10;99.90;;;;;;5033522;28;20172;-80
2022/08/07 00:38:00;;;;;;;2.15;1.33;;;17.10;99.90;;;;;;5033998;28;20164;-80
2022/08/07 00:40:27;;;;;;;8.13;2.22;;;17.10;99.90;;;;;;5033835;28;20220;-80
2022/08/07 00:42:53;;;;;;;2.80;1.25;;;17.10;99.90;;;;;;5032443;28;20170;-80
2022/08/07 00:45:20;;;;;;;5.65;1.48;;;17.00;99.90;;;;;;5033949;28;20171;-81
2022/08/07 00:47:46;;;;;;;7.05;1.67;;;17.10;99.90;;;;;;5032602;28;20225;-81
2022/08/07 00:50:12;;;;;;;2.92;1.60;;;17.40;99.90;;;;;;5033694;28;20299;-80
2022/08/07 00:52:38;;;;;;;2.55;1.30;;;17.30;99.90;;;;;;5033297;28;20632;-79
2022/08/07 00:55:04;;;;;;;3.22;1.40;;;17.10;99.90;;;;;;5033716;28;20192;-81
2022/08/07 00:57:30;;;;;;;2.22;1.70;;;17.00;99.90;;;;;;5032234;28;20641;-80
2022/08/07 00:59:55;;;;;;;2.55;1.60;;;16.90;99.90;;;;;;5033228;28;20282;-80
2022/08/07 01:02:23;;;;;;;5.85;1.98;;;17.00;99.90;;;;;;5032509;28;20298;-80
2022/08/07 01:04:49;;;;;;;4.72;1.70;;;16.80;99.90;;;;;;5033440;28;20164;-82
2022/08/07 01:07:15;;;;;;;3.00;1.73;;;16.80;99.90;;;;;;5033421;28;20664;-80
2022/08/07 01:09:41;;;;;;;4.38;1.88;;;16.60;99.90;;;;;;5033745;28;20192;-80
2022/08/07 01:12:06;;;;;;;3.38;1.67;;;16.70;99.90;;;;;;5033419;28;20163;-80
2022/08/07 01:14:32;;;;;;;1.92;1.70;;;16.70;99.90;;;;;;5033339;28;20171;-80
2022/08/07 01:16:58;;;;;;;2.03;1.50;;;16.70;99.90;;;;;;5032110;28;20699;-80
2022/08/07 01:19:26;;;;;;;2.78;1.60;;;16.60;99.90;;;;;;5033026;28;20191;-81
2022/08/07 01:21:53;;;;;;;4.10;1.60;;;16.80;99.90;;;;;;5033089;28;20175;-82
2022/08/07 01:24:20;;;;;;;2.22;1.70;;;17.00;99.90;;;;;;5032136;28;20172;-80
2022/08/07 01:26:46;;;;;;;3.58;1.73;;;17.00;99.90;;;;;;5033332;28;20179;-81
2022/08/07 01:29:13;;;;;;;3.58;1.88;;;16.70;99.90;;;;;;5031896;28;20196;-81
2022/08/07 01:31:39;;;;;;;8.18;1.67;;;16.60;99.90;;;;;;5031597;28;20202;-81
2022/08/07 01:34:05;;;;;;;3.97;1.85;;;16.60;99.90;;;;;;5032969;28;20164;-81
2022/08/07 01:36:31;;;;;;;3.33;1.80;;;16.80;99.90;;;;;;5032900;28;20494;-81
2022/08/07 01:38:57;;;;;;;5.82;1.73;;;16.90;99.90;;;;;;5033035;28;20172;-81
2022/08/07 01:41:24;;;;;;;2.35;1.58;;;16.70;99.90;;;;;;5033167;28;20658;-80
2022/08/07 01:43:50;;;;;;;3.03;2.40;;;16.60;99.90;;;;;;5032588;28;20885;-81
2022/08/07 01:46:18;;;;;;;2.10;1.38;;;16.80;99.90;;;;;;5032456;28;20168;-80
2022/08/07 01:48:45;;;;;;;3.15;2.17;;;16.70;99.90;;;;;;5030652;28;20179;-80
2022/08/07 01:51:15;;;;;;;9.77;1.92;;;16.50;99.90;;;;;;5032319;28;20179;-80
2022/08/07 01:53:45;;;;;;;5.45;2.00;;;16.40;99.90;;;;;;5031494;28;20551;-80
2022/08/07 01:56:16;;;;;;;6.10;1.90;;;16.50;99.90;;;;;;5031082;28;20215;-79
2022/08/07 01:59:05;;;;;;;4.57;2.15;;;16.60;99.90;;;;;;5031413;28;20318;-80
2022/08/07 02:01:42;;;;;;;3.72;2.25;;;16.50;99.90;;;;;;5023054;28;20199;-81
2022/08/07 02:04:31;;;;;;;17.10;2.70;;;16.30;99.90;;;;;;5032216;28;20807;-80
2022/08/07 02:06:59;;;;;;;3.17;2.00;;;16.40;99.90;;;;;;5031310;28;20171;-81
2022/08/07 02:09:27;;;;;;;4.05;2.30;;;16.40;99.90;;;;;;5032242;28;20179;-81
2022/08/07 02:11:55;;;;;;;2.47;1.70;;;16.40;99.90;;;;;;5031200;28;20640;-81
2022/08/07 02:14:22;;;;;;;6.65;1.88;;;16.60;99.90;;;;;;5032656;28;20731;-81
2022/08/07 02:16:51;;;;;;;3.15;1.95;;;16.40;99.90;;;;;;5032697;28;20210;-80
2022/08/07 02:19:17;;;;;;;2.97;2.25;;;16.50;99.90;;;;;;5032545;28;20210;-81
2022/08/07 02:21:44;;;;;;;4.50;2.20;;;16.40;99.90;;;;;;5031455;28;20176;-80
2022/08/07 02:24:12;;;;;;;2.80;1.90;;;16.40;99.90;;;;;;5033076;28;20171;-81
2022/08/07 02:26:38;;;;;;;2.20;1.73;;;16.40;99.90;;;;;;5033559;28;20168;-81
2022/08/07 02:29:08;;;;;;;5.15;2.00;;;16.50;99.90;;;;;;5032437;28;20176;-80
2022/08/07 02:31:34;;;;;;;8.93;2.33;;;16.50;99.90;;;;;;5032493;28;20636;-80
2022/08/07 02:34:02;;;;;;;1.85;1.60;;;16.30;99.90;;;;;;5031476;28;20179;-79
2022/08/07 02:36:29;;;;;;;5.38;2.47;;;16.20;99.90;;;;;;5032581;28;20171;-79
2022/08/07 02:38:56;;;;;;;4.82;1.77;;;16.20;99.90;;;;;;5032363;28;20621;-80
2022/08/07 02:41:23;;;;;;;2.10;1.90;;;16.30;99.90;;;;;;5032453;28;20650;-80
2022/08/07 02:43:49;;;;;;;3.03;2.13;;;16.50;99.90;;;;;;5031362;28;20172;-81
2022/08/07 02:46:18;;;;;;;6.95;2.35;;;16.50;99.90;;;;;;5031565;28;20217;-80
2022/08/07 02:48:44;;;;;;;4.90;2.13;;;16.40;99.90;;;;;;5032559;28;20172;-80
2022/08/07 02:51:13;;;;;;;1.73;1.63;;;16.50;99.90;;;;;;5032614;28;20211;-80
2022/08/07 02:53:42;;;;;;;5.72;2.10;;;16.50;99.90;;;;;;5032443;28;20168;-80
2022/08/07 02:56:13;;;;;;;2.15;1.63;;;16.50;99.90;;;;;;5031280;28;20183;-82
2022/08/07 02:58:41;;;;;;;3.20;2.10;;;16.40;99.90;;;;;;5032708;28;20187;-80
2022/08/07 03:01:08;;;;;;;3.45;2.38;;;16.50;99.90;;;;;;5036457;28;20212;-81
2022/08/07 03:03:35;;;;;;;3.38;1.90;;;16.60;99.90;;;;;;5036532;28;20580;-81
2022/08/07 03:06:01;;;;;;;6.35;2.15;;;16.50;99.90;;;;;;5035981;28;20178;-80
2022/08/07 03:08:27;;;;;;;4.82;1.95;;;16.50;99.90;;;;;;5035712;28;20191;-80
2022/08/07 03:10:55;;;;;;;3.85;2.55;;;16.50;99.90;;;;;;5036206;28;20601;-79
2022/08/07 03:13:20;;;;;;;3.78;1.92;;;16.60;99.90;;;;;;5036187;28;20271;-79
2022/08/07 03:15:47;;;;;;;1.88;1.77;;;16.70;99.90;;;;;;5035872;28;20239;-80
2022/08/07 03:18:14;;;;;;;2.33;2.13;;;16.60;99.90;;;;;;5036346;28;20178;-79
2022/08/07 03:20:43;;;;;;;3.97;2.47;;;16.40;99.90;;;;;;5038777;28;20629;-81
2022/08/07 03:23:09;;;;;;;3.33;1.90;;;16.30;99.90;;;;;;5040926;28;20148;-81
2022/08/07 03:25:39;;;;;;;2.22;2.00;;;16.40;99.90;;;;;;5042515;28;20168;-80
2022/08/07 03:28:11;;;;;;;8.57;1.70;;;16.40;99.90;;;;;;5045093;28;20160;-80
2022/08/07 03:30:38;;;;;;;8.65;2.30;;;16.50;99.90;;;;;;5041238;28;20188;-81
2022/08/07 03:33:06;;;;;;;2.55;1.80;;;16.50;99.90;;;;;;5037742;28;20168;-80
2022/08/07 03:35:34;;;;;;;2.38;2.17;;;16.30;99.90;;;;;;5035467;28;20164;-80
2022/08/07 03:38:03;;;;;;;4.53;2.55;;;16.20;99.90;;;;;;5035506;28;20172;-80
2022/08/07 03:40:29;;;;;;;4.40;1.42;;;15.90;99.90;;;;;;5035118;28;20825;-80
2022/08/07 03:42:55;;;;;;;4.88;2.00;;;16.00;99.90;;;;;;5035145;28;20536;-80
2022/08/07 03:45:23;;;;;;;3.83;2.38;;;16.10;99.90;;;;;;5033794;28;20179;-80
2022/08/07 03:47:50;;;;;;;3.88;1.67;;;16.20;99.90;;;;;;5035027;28;20195;-80
2022/08/07 03:50:18;;;;;;;3.13;2.83;;;16.20;99.90;;;;;;5034820;28;20214;-80
2022/08/07 03:52:45;;;;;;;1.95;1.60;;;16.40;99.90;;;;;;5033510;28;20200;-80
2022/08/07 03:55:11;;;;;;;4.15;2.15;;;16.30;99.90;;;;;;5034909;28;20192;-80
2022/08/07 03:57:38;;;;;;;7.30;2.53;;;15.90;99.90;;;;;;5034684;28;20174;-80
2022/08/07 04:00:04;;;;;;;6.32;2.20;;;15.60;99.90;;;;;;5034407;28;20204;-79
2022/08/07 04:02:30;;;;;;;5.85;2.78;;;15.40;99.90;;;;;;5034523;28;20221;-81
2022/08/07 04:04:56;;;;;;;6.70;3.03;;;15.50;99.90;;;;;;5035150;28;20179;-80
2022/08/07 04:07:22;;;;;;;4.80;3.67;;;15.30;99.90;;;;;;5034975;28;20168;-80
2022/08/07 04:09:49;;;;;;;4.03;3.00;;;15.10;99.90;;;;;;5032388;28;20640;-80
2022/08/07 04:12:15;;;;;;;5.50;3.65;;;15.00;99.90;;;;;;5035631;28;20242;-80
2022/08/07 04:14:42;;;;;;;8.77;3.88;;;15.30;99.90;;;;;;5033620;28;20652;-80
2022/08/07 04:17:08;;;;;;;4.53;3.45;;;15.40;99.90;;;;;;5034623;28;20178;-80
2022/08/07 04:19:35;;;;;;;7.90;3.78;;;15.30;99.90;;;;;;5032654;28;20199;-80
2022/08/07 04:22:01;;;;;;;7.60;4.15;;;15.50;99.90;;;;;;5034417;28;20183;-81
2022/08/07 04:24:28;;;;;;;5.28;3.45;;;15.50;99.90;;;;;;5034947;28;20238;-80
2022/08/07 04:26:53;;;;;;;5.03;3.95;;;15.40;99.90;;;;;;5033218;28;20713;-81
2022/08/07 04:29:19;;;;;;;4.10;3.70;;;15.20;99.90;;;;;;5034085;28;20184;-80
2022/08/07 04:31:45;;;;;;;9.02;3.72;;;15.50;99.90;;;;;;5034134;28;20180;-80
2022/08/07 04:34:11;;;;;;;6.75;3.40;;;15.70;99.90;;;;;;5034195;28;20202;-80
2022/08/07 04:36:39;;;;;;;7.90;4.25;;;15.60;99.90;;;;;;5034477;28;20199;-80
2022/08/07 04:39:04;;;;;;;7.35;4.72;;;15.60;99.90;;;;;;5033902;28;20159;-80
2022/08/07 04:41:30;;;;;;;7.05;4.18;;;15.80;99.90;;;;;;5034037;28;20282;-80
2022/08/07 04:43:57;;;;;;;6.00;4.50;;;16.10;99.90;;;;;;5033949;28;20504;-80
2022/08/07 04:46:40;;;;;;;9.90;3.70;;;16.00;99.90;;;;;;5033593;28;20199;-81
2022/08/07 04:49:21;;;;;;;8.93;4.18;;;16.10;99.90;;;;;;5033862;28;20179;-80
2022/08/07 04:52:24;;;;;;;4.13;3.60;;;16.10;99.90;;;;;;5033898;28;20506;-80
2022/08/07 04:55:08;;;;;;;5.65;3.42;;;16.00;99.90;;;;;;5023762;28;20187;-81
2022/08/07 04:57:48;;;;;;;3.63;3.25;;;16.00;99.90;;;;;;5033102;28;20179;-79
2022/08/07 05:00:18;;;;;;;13.43;3.72;;;15.80;99.90;;;;;;5032445;28;20227;-80
2022/08/07 05:03:03;;;;;;;5.53;3.63;;;16.00;99.90;;;;;;5033515;28;20171;-80
2022/08/07 05:05:51;;;;;;;5.22;3.70;;;15.80;99.90;;;;;;5034800;28;20658;-81
2022/08/07 05:08:26;;;;;;;5.80;3.28;;;16.10;99.90;;;;;;5034463;28;20171;-80
2022/08/07 05:11:03;;;;;;;4.28;3.70;;;16.30;99.90;;;;;;5033433;28;20264;-80
2022/08/07 05:13:38;;;;;;;4.60;3.28;;;16.30;99.90;;;;;;5032451;28;20168;-80
2022/08/07 05:16:07;;;;;;;4.22;3.83;;;16.30;99.90;;;;;;5032250;28;20176;-80
2022/08/07 05:18:43;;;;;;;3.50;3.20;;;16.00;99.90;;;;;;5033270;28;20168;-80
2022/08/07 05:21:12;;;;;;;5.38;3.47;;;15.90;99.90;;;;;;5031988;28;20215;-80
2022/08/07 05:23:44;;;;;;;3.97;3.38;;;16.10;99.90;;;;;;5033211;28;20168;-80
2022/08/07 05:26:14;;;;;;;3.95;3.55;;;16.20;99.90;;;;;;5031647;28;20540;-79
2022/08/07 05:28:41;;;;;;;4.03;3.50;;;16.20;99.90;;;;;;5031692;28;20163;-80
2022/08/07 05:31:10;;;;;;;3.20;2.90;;;16.30;99.90;;;;;;5031776;28;20195;-80
2022/08/07 05:33:37;;;;;;;4.68;3.75;;;16.30;99.90;;;;;;5031683;28;20593;-80
2022/08/07 05:36:05;;;;;;;5.47;3.38;;;16.50;99.90;;;;;;5033014;28;20164;-80
2022/08/07 05:38:32;;;;;;;3.78;3.40;;;16.40;99.90;;;;;;5031486;28;20176;-81
2022/08/07 05:40:59;;;;;;;5.72;3.17;;;16.50;99.90;;;;;;5031253;28;20575;-80
2022/08/07 05:43:25;;;;;;;4.50;3.50;;;16.50;99.90;;;;;;5032911;28;20163;-80
2022/08/07 05:45:51;;;;;;;3.58;3.28;;;16.60;99.90;;;;;;5032741;28;20563;-80
2022/08/07 05:48:18;;;;;;;3.38;3.05;;;16.50;99.90;;;;;;5032804;28;20695;-80
2022/08/07 05:50:46;;;;;;;3.90;3.60;;;16.50;99.90;;;;;;5031279;28;20199;-82
2022/08/07 05:53:11;;;;;;;11.52;3.47;;;16.40;99.90;;;;;;5032725;28;20168;-81
2022/08/07 05:55:38;;;;;;;8.70;4.00;;;16.60;99.90;;;;;;5032791;28;20253;-81
2022/08/07 05:58:05;;;;;;;6.85;3.00;;;16.60;99.90;;;;;;5031243;28;20195;-81
2022/08/07 06:00:33;;;;;;;5.63;3.03;;;16.80;99.90;;;;;;5031385;28;20234;-81
2022/08/07 06:03:00;;;;;;;3.85;3.50;;;16.90;99.90;;;;;;5032756;28;20164;-80
2022/08/07 06:05:27;;;;;;;6.18;3.33;;;17.00;99.90;;;;;;5032200;28;20171;-80
2022/08/07 06:07:55;;;;;;;7.30;3.08;;;17.00;99.90;;;;;;5032176;28;20674;-81
2022/08/07 06:10:21;;;;;;;4.68;3.33;;;17.00;99.90;;;;;;5031238;28;20238;-81
2022/08/07 06:12:47;;;;;;;4.72;3.80;;;17.10;99.90;;;;;;5031143;28;20160;-81
2022/08/07 06:15:14;;;;;;;5.05;3.22;;;17.20;99.90;;;;;;5031433;28;20168;-81
2022/08/07 06:17:42;;;;;;;3.83;3.30;;;17.40;99.90;;;;;;5032233;28;20650;-81
2022/08/07 06:20:08;;;;;;;6.60;3.28;;;17.30;99.90;;;;;;5050107;28;20207;-81
2022/08/07 06:22:35;;;;;;;4.03;3.33;;;17.20;99.90;;;;;;5057163;28;20183;-81
2022/08/07 06:25:01;;;;;;;3.63;3.05;;;17.20;99.90;;;;;;5055815;28;20179;-82
2022/08/07 06:27:27;;;;;;;5.88;3.63;;;17.40;99.90;;;;;;5055476;28;20164;-83
2022/08/07 06:29:53;;;;;;;3.45;3.15;;;17.40;99.90;;;;;;5055471;28;20176;-82
2022/08/07 06:32:19;;;;;;;6.93;3.00;;;17.20;99.90;;;;;;5050928;28;20175;-83
2022/08/07 06:34:44;;;;;;;6.68;3.17;;;17.20;99.90;;;;;;5042499;28;20180;-81
2022/08/07 06:37:10;;;;;;;8.20;3.45;;;17.40;99.90;;;;;;5035427;28;20221;-81
2022/08/07 06:39:35;;;;;;;3.17;2.10;;;17.30;99.90;;;;;;5036711;28;20200;-85
2022/08/07 06:42:14;;;;;;;9.30;2.78;;;17.40;99.90;;;;;;5035407;28;20183;-83
2022/08/07 06:44:42;;;;;;;2.85;2.20;;;17.50;99.90;;;;;;5036435;28;20184;-82
2022/08/07 06:47:08;;;;;;;6.93;2.38;;;17.60;99.90;;;;;;5038245;28;20206;-85
2022/08/07 06:49:34;;;;;;;3.28;2.10;;;17.80;99.90;;;;;;5038691;28;20515;-86
2022/08/07 06:52:01;;;;;;;5.70;2.05;;;18.10;99.90;;;;;;5039097;28;20297;-86
2022/08/07 06:54:28;;;;;;;4.47;2.47;;;18.00;99.90;;;;;;5039737;28;20175;-85
2022/08/07 06:56:55;;;;;;;3.92;2.10;;;18.00;99.90;;;;;;5036585;28;20180;-88
2022/08/07 06:59:25;;;;;;;2.03;1.90;;;18.20;99.90;;;;;;5036885;28;20298;-86
2022/08/07 07:01:52;;;;;;;2.67;2.20;;;18.30;99.90;;;;;;5036117;28;20241;-88
2022/08/07 07:04:19;;;;;;;2.25;2.03;;;18.30;99.90;;;;;;5036261;28;20620;-86
2022/08/07 07:06:44;;;;;;;2.92;2.30;;;18.10;99.90;;;;;;5036482;28;20192;-88
2022/08/07 07:09:23;;;;;;;5.35;2.10;;;17.90;99.90;;;;;;5036335;28;20603;-87
2022/08/07 07:12:07;;;;;;;6.13;2.28;;;18.20;99.90;;;;;;5035990;28;20179;-86
2022/08/07 07:14:44;;;;;;;2.20;2.00;;;18.30;99.90;;;;;;5035980;28;20175;-86
2022/08/07 07:17:17;;;;;;;5.05;2.25;;;18.40;99.90;;;;;;5037137;28;20572;-86
2022/08/07 07:19:49;;;;;;;3.88;1.98;;;18.40;99.90;;;;;;5035060;28;20199;-86
2022/08/07 07:22:16;;;;;;;4.70;2.05;;;19.10;99.90;;;;;;5035757;28;20184;-86
2022/08/07 07:24:42;;;;;;;4.18;2.08;;;20.10;99.90;;;;;;5035649;28;20179;-85
2022/08/07 07:27:10;;;;;;;5.38;2.15;;;21.10;99.90;;;;;;5036078;28;20186;-87
2022/08/07 07:29:40;;;;;;;3.33;1.48;;;22.00;99.90;;;;;;5035404;28;20198;-86
2022/08/07 07:32:09;;;;;;;2.85;1.92;;;22.60;99.90;;;;;;5035858;28;20207;-86
2022/08/07 07:34:39;;;;;;;1.85;1.40;;;22.80;99.90;;;;;;5038004;28;20176;-83
2022/08/07 07:37:06;;;;;;;5.78;1.40;;;22.90;99.90;;;;;;5041901;28;20176;-84
2022/08/07 07:39:35;;;;;;;2.10;1.73;;;23.40;99.90;;;;;;5046435;28;20676;-88
2022/08/07 07:42:02;;;;;;;5.28;1.90;;;23.20;99.90;;;;;;5050337;28;20172;-89
2022/08/07 07:44:30;;;;;;;3.15;1.77;;;23.30;99.90;;;;;;5044645;28;20176;-89
2022/08/07 07:46:58;;;;;;;11.52;1.92;;;22.50;99.90;;;;;;5047020;28;20207;-91
2022/08/07 07:49:26;;;;;;;2.03;1.52;;;22.00;99.90;;;;;;5041629;28;20278;-88
2022/08/07 07:51:54;;;;;;;3.45;2.10;;;21.70;99.90;;;;;;5036502;28;20164;-89
2022/08/07 07:54:21;;;;;;;2.90;1.73;;;21.60;99.90;;;;;;5036476;28;20199;-88
2022/08/07 07:56:48;;;;;;;3.35;1.90;;;21.20;99.90;;;;;;5037047;28;20175;-88
2022/08/07 07:59:15;;;;;;;3.63;1.70;;;21.10;99.90;;;;;;5037453;28;20250;-88
2022/08/07 08:01:45;;;;;;;2.00;1.80;;;21.00;99.90;;;;;;5037162;28;20183;-88
2022/08/07 08:06:38;;;;;;;1.90;1.63;;;20.90;99.90;;;;;;5019811;28;20180;-91
2022/08/07 08:09:06;;;;;;;2.88;1.98;;;20.50;99.90;;;;;;5035791;28;20170;-88
2022/08/07 08:11:33;;;;;;;4.30;1.83;;;20.30;99.90;;;;;;5036118;28;20187;-90
2022/08/07 08:13:59;;;;;;;1.95;1.52;;;20.40;99.90;;;;;;5035817;28;20167;-90
2022/08/07 08:16:36;;;;;;;13.18;1.55;;;20.40;99.90;;;;;;5039810;28;20179;-88
2022/08/07 08:19:07;;;;;;;2.03;1.73;;;20.70;99.90;;;;;;5040207;28;20168;-88
2022/08/07 08:27:08;;;;;;;2.80;1.85;;;21.30;99.90;;;;;;5040415;28;20591;-91
2022/08/07 08:29:49;;;;;;;3.47;1.35;;;21.20;99.90;;;;;;5035448;28;20521;-85
2022/08/07 08:32:16;;;;;;;2.08;1.40;;;21.00;99.90;;;;;;5033241;28;20167;-84
2022/08/07 08:34:44;;;;;;;2.08;1.60;;;20.90;99.90;;;;;;5035239;28;20172;-86
2022/08/07 08:37:12;;;;;;;2.05;1.38;;;21.00;99.90;;;;;;5033356;28;20168;-84
2022/08/07 08:39:39;;;;;;;3.55;1.85;;;21.00;99.90;;;;;;5033917;28;20212;-81
2022/08/07 08:42:28;;;;;;;1.83;1.73;;;21.20;99.90;;;;;;5029427;28;20234;-81
2022/08/07 08:45:19;;;;;;;2.60;1.60;;;21.40;99.90;;;;;;5007274;28;20678;-82
2022/08/07 08:48:25;;;;;;;4.28;1.52;;;21.50;99.90;;;;;;5037586;28;20258;-81
2022/08/07 08:51:42;;;;;;;8.25;1.80;;;21.40;99.90;;;;;;4963826;28;20264;-82
2022/08/07 08:54:18;;;;;;;2.92;2.20;;;21.40;99.90;;;;;;4876949;29;20177;-82
2022/08/07 08:56:48;;;;;;;4.25;1.52;;;21.60;99.90;;;;;;4926209;29;20198;-83
2022/08/07 08:59:25;;;;;;;2.33;1.70;;;21.90;99.90;;;;;;4977595;28;20736;-83
2022/08/07 09:02:15;;;;;;;3.50;1.65;;;21.90;99.90;;;;;;5013228;28;20261;-85
2022/08/07 09:04:44;;;;;;;2.25;1.38;;;21.70;99.90;;;;;;5014248;28;20165;-85
2022/08/07 09:07:16;;;;;;;1.85;1.38;;;21.40;99.90;;;;;;5013881;28;20537;-88
2022/08/07 09:10:11;;;;;;;3.40;1.50;;;21.40;99.90;;;;;;5013626;28;20189;-86
2022/08/07 09:12:43;;;;;;;1.52;1.23;;;21.80;99.90;;;;;;5015281;28;20251;-85
2022/08/07 09:15:19;;;;;;;1.95;1.30;;;21.90;99.90;;;;;;5012733;28;20492;-81
2022/08/07 09:18:12;;;;;;;2.25;1.30;;;21.80;99.90;;;;;;5014676;28;20215;-85
2022/08/07 09:20:50;;;;;;;10.15;1.38;;;22.10;99.90;;;;;;5014805;28;20244;-84
2022/08/07 09:23:45;;;;;;;2.80;1.60;;;22.30;99.90;;;;;;5013219;28;20628;-84
2022/08/07 09:26:23;;;;;;;1.95;1.42;;;22.40;99.90;;;;;;5012993;28;20231;-85
2022/08/07 09:28:56;;;;;;;1.70;1.55;;;22.40;99.90;;;;;;5014380;28;20160;-83
2022/08/07 09:31:33;;;;;;;1.88;1.15;;;22.40;99.90;;;;;;5015509;28;20255;-86
2022/08/07 09:34:21;;;;;;;2.17;1.20;;;22.30;99.90;;;;;;5014083;28;20180;-86
2022/08/07 09:36:59;;;;;;;1.20;1.10;;;22.40;99.90;;;;;;5014179;28;20177;-86
2022/08/07 09:39:34;;;;;;;5.80;1.55;;;22.50;99.90;;;;;;5013616;28;20200;-83
2022/08/07 09:42:09;;;;;;;4.30;1.40;;;22.50;99.90;;;;;;5012232;28;20176;-84
2022/08/07 09:44:37;;;;;;;3.35;1.30;;;22.70;99.90;;;;;;5012284;28;20225;-83
2022/08/07 09:47:14;;;;;;;2.13;1.15;;;22.90;99.90;;;;;;5013568;28;20175;-86
2022/08/07 09:49:54;;;;;;;3.47;1.40;;;23.00;99.90;;;;;;5011622;28;20596;-83
2022/08/07 09:52:31;;;;;;;3.63;1.20;;;22.60;99.90;;;;;;5013030;28;20168;-84
2022/08/07 09:55:06;;;;;;;5.25;1.15;;;22.60;99.90;;;;;;5011769;28;20213;-84
2022/08/07 09:58:03;;;;;;;2.83;1.15;;;22.90;99.90;;;;;;5011754;28;20650;-83
2022/08/07 10:00:56;;;;;;;2.72;1.38;;;22.90;99.90;;;;;;5013040;28;20227;-85
2022/08/07 10:04:20;;;;;;;1.52;1.02;;;22.90;99.90;;;;;;5012285;28;20179;-84
2022/08/07 10:06:57;;;;;;;1.50;1.40;;;22.70;99.90;;;;;;4969210;28;20193;-83
2022/08/07 10:09:44;;;;;;;3.42;1.40;;;23.00;99.90;;;;;;5012503;28;20267;-84
2022/08/07 10:12:14;;;;;;;1.80;1.13;;;22.90;99.90;;;;;;5012339;28;20539;-84
2022/08/07 10:15:04;;;;;;;0.82;0.80;;;22.70;99.90;;;;;;5013151;28;20613;-84
2022/08/07 10:17:41;;;;;;;1.25;1.10;;;23.00;99.90;;;;;;5011733;28;20230;-83
2022/08/07 10:20:28;;;;;;;1.20;1.10;;;23.00;99.90;;;;;;5011660;28;20258;-86
2022/08/07 10:23:17;;;;;;;4.10;3.30;;;23.10;99.90;;;;;;5011429;28;20176;-83
2022/08/07 10:25:59;;;;;;;9.43;1.83;;;23.40;99.90;;;;;;5011809;28;20172;-83
2022/08/07 10:28:57;;;;;;;1.40;1.17;;;23.60;99.90;;;;;;5011362;28;20186;-82
2022/08/07 10:31:25;;;;;;;1.20;1.02;;;23.50;99.90;;;;;;5011605;28;20269;-83
2022/08/07 10:34:27;;;;;;;1.38;1.10;;;23.50;99.90;;;;;;5011629;28;20180;-82
2022/08/07 10:37:19;;;;;;;1.80;1.35;;;23.40;99.90;;;;;;5011909;28;20175;-84
2022/08/07 10:40:00;;;;;;;1.45;1.13;;;23.30;99.90;;;;;;5011128;28;20201;-84
2022/08/07 10:43:01;;;;;;;4.07;1.02;;;23.10;99.90;;;;;;5011738;28;20187;-84
2022/08/07 10:45:38;;;;;;;3.10;1.00;;;22.90;99.90;;;;;;4975329;28;20172;-85
2022/08/07 10:48:23;;;;;;;1.73;1.00;;;23.10;99.90;;;;;;5008450;28;20187;-86
2022/08/07 10:51:15;;;;;;;1.10;1.00;;;23.30;99.90;;;;;;5013189;28;20224;-88
2022/08/07 10:54:05;;;;;;;7.85;1.30;;;23.20;99.90;;;;;;5009999;28;20199;-84
2022/08/07 10:57:01;;;;;;;0.80;0.80;;;23.30;99.90;;;;;;5011398;28;20224;-85
2022/08/07 10:59:49;;;;;;;2.55;1.00;;;23.30;99.90;;;;;;5012515;28;20191;-83
2022/08/07 11:02:25;;;;;;;1.75;1.30;;;23.00;99.90;;;;;;5011456;28;20180;-82
2022/08/07 11:04:56;;;;;;;1.20;1.10;;;23.00;99.90;;;;;;5010752;28;20180;-81
2022/08/07 11:08:05;;;;;;;4.63;1.10;;;22.70;99.90;;;;;;5010922;28;20549;-81
2022/08/07 11:10:42;;;;;;;19.85;2.65;;;22.90;99.90;;;;;;5009350;28;20207;-81
2022/08/07 11:13:17;;;;;;;1.40;1.25;;;23.20;99.90;;;;;;5011121;28;20371;-82
2022/08/07 11:15:45;;;;;;;3.25;1.35;;;23.50;99.90;;;;;;5011995;28;20172;-82
2022/08/07 11:18:19;;;;;;;1.92;0.82;;;23.50;99.90;;;;;;5012335;28;20172;-84
2022/08/07 11:21:05;;;;;;;2.38;1.30;;;23.20;99.90;;;;;;5014107;28;20216;-86
2022/08/07 11:24:02;;;;;;;2.95;1.08;;;23.20;99.90;;;;;;5015549;28;20175;-84
2022/08/07 11:26:58;;;;;;;1.20;1.10;;;23.40;99.90;;;;;;5014882;28;20175;-85
2022/08/07 11:29:41;;;;;;;3.50;1.10;;;23.50;99.90;;;;;;5015942;28;20188;-84
2022/08/07 11:32:13;;;;;;;1.35;0.90;;;23.60;99.90;;;;;;5016054;28;20165;-84
2022/08/07 11:34:47;;;;;;;1.63;1.00;;;23.60;99.90;;;;;;5016144;28;20164;-85
2022/08/07 11:37:25;;;;;;;1.15;0.98;;;23.40;99.90;;;;;;5019335;28;20681;-83
2022/08/07 11:40:12;;;;;;;4.10;1.02;;;23.20;99.90;;;;;;5043090;28;20203;-81
2022/08/07 11:42:54;;;;;;;3.03;1.05;;;23.30;99.90;;;;;;5035070;28;20258;-85
2022/08/07 11:46:13;;;;;;;2.70;1.02;;;23.10;99.90;;;;;;5035564;28;20258;-82
2022/08/07 11:49:07;;;;;;;2.33;1.02;;;23.20;99.90;;;;;;4997590;28;20192;-83
2022/08/07 11:51:54;;;;;;;5.75;1.05;;;23.50;99.90;;;;;;5040140;28;20219;-83
2022/08/07 11:54:31;;;;;;;1.40;1.30;;;23.70;99.90;;;;;;5036055;28;20168;-82
2022/08/07 11:57:05;;;;;;;1.08;0.80;;;23.60;99.90;;;;;;5035600;28;20191;-79
2022/08/07 12:00:10;;;;;;;4.15;0.85;;;23.60;99.90;;;;;;5038584;28;20663;-79
2022/08/07 12:02:54;;;;;;;2.03;1.40;;;23.60;99.90;;;;;;5035852;28;20163;-79
2022/08/07 12:05:43;;;;;;;2.17;1.27;;;23.90;99.90;;;;;;5035824;28;20164;-84
2022/08/07 12:08:39;;;;;;;2.53;0.90;;;23.70;99.50;;;;;;5036022;28;20160;-81
2022/08/07 12:11:25;;;;;;;1.75;1.10;;;23.50;99.80;;;;;;5037663;28;20180;-83
2022/08/07 12:14:02;;;;;;;1.10;0.80;;;23.50;98.60;;;;;;5036648;28;20172;-86
2022/08/07 12:16:33;;;;;;;1.60;0.88;;;23.60;98.00;;;;;;5036736;28;20170;-85
2022/08/07 12:19:30;;;;;;;2.78;1.23;;;23.70;97.50;;;;;;5036818;28;20186;-83
2022/08/07 12:22:24;;;;;;;9.65;1.48;;;23.80;98.00;;;;;;5035640;28;20234;-84
2022/08/07 12:28:22;;;;;;;2.55;1.10;;;23.90;99.50;;;;;;5024815;28;20795;-85
2022/08/07 12:30:51;;;;;;;1.00;0.90;;;23.70;99.50;;;;;;5032891;28;20179;-84
2022/08/07 12:33:20;;;;;;;1.75;1.25;;;23.80;99.90;;;;;;5035312;28;20250;-86
2022/08/07 12:35:49;;;;;;;2.15;1.00;;;23.80;98.90;;;;;;5034756;28;20164;-83
2022/08/07 12:38:16;;;;;;;5.38;1.13;;;23.90;98.40;;;;;;5034959;28;20174;-82
2022/08/07 12:41:00;;;;;;;1.00;0.95;;;23.90;98.20;;;;;;5036526;28;20341;-88
2022/08/07 12:43:34;;;;;;;1.52;1.00;;;24.10;98.00;;;;;;5042532;28;20243;-86
2022/08/07 12:46:14;;;;;;;4.60;0.82;;;24.10;97.80;;;;;;5038088;28;20164;-86
2022/08/07 12:49:10;;;;;;;5.75;1.02;;;24.10;98.10;;;;;;5036394;28;20198;-83
2022/08/07 12:51:49;;;;;;;1.52;1.27;;;24.00;97.70;;;;;;5035433;28;20156;-82
2022/08/07 12:54:53;;;;;;;1.20;0.93;;;24.20;98.00;;;;;;5034708;28;20193;-81
2022/08/07 12:57:25;;;;;;;1.90;1.15;;;24.30;98.60;;;;;;5022560;28;20195;-84
2022/08/07 12:59:54;;;;;;;1.92;1.38;;;24.20;98.40;;;;;;5033902;28;20269;-86
2022/08/07 13:02:47;;;;;;;2.78;1.73;;;24.20;98.20;;;;;;5034761;28;20170;-88
2022/08/07 13:05:52;;;;;;;2.15;1.40;;;24.30;98.40;;;;;;5036707;28;20175;-85
2022/08/07 13:08:27;;;;;;;1.92;1.20;;;24.50;98.50;;;;;;5035392;28;20179;-87
2022/08/07 13:11:07;;;;;;;2.33;1.17;;;24.50;98.40;;;;;;5034903;28;20183;-86
2022/08/07 13:13:46;;;;;;;0.85;0.85;;;24.50;98.00;;;;;;5035588;28;20174;-86
2022/08/07 13:16:25;;;;;;;5.03;1.48;;;24.10;98.10;;;;;;5034989;28;20179;-85
2022/08/07 13:19:28;;;;;;;2.17;1.30;;;23.90;98.90;;;;;;5035759;28;20597;-86
2022/08/07 13:22:28;;;;;;;4.82;1.30;;;24.10;99.10;;;;;;5035503;28;20643;-86
2022/08/07 13:24:57;;;;;;;2.65;1.52;;;24.40;98.80;;;;;;5029823;28;20600;-86
2022/08/07 13:27:32;;;;;;;2.35;1.45;;;24.50;98.70;;;;;;5035240;28;20270;-87
2022/08/07 13:30:04;;;;;;;1.88;1.10;;;24.50;99.00;;;;;;5035831;28;20215;-86